sensor_id;sensor_type;location;lat;lon;timestamp;P1;durP1;ratioP1;P2;durP2;ratioP2
48861;SDS011;34681;49.188;-0.374;2023-02-27T00:00:37;2.00;;;1.70;;
48861;SDS011;34681;49.188;-0.374;2023-02-27T00:03:02;9.53;;;2.80;;
48861;SDS011;34681;49.188;-0.374;2023-02-27T00:05:28;4.23;;;2.80;;
48861;SDS011;34681;49.188;-0.374;2023-02-27T00:07:53;5.80;;;1.97;;
48861;SDS011;34681;49.188;-0.374;2023-02-27T00:10:19;3.60;;;2.27;;
48861;SDS011;34681;49.188;-0.374;2023-02-27T00:12:44;4.47;;;1.70;;
48861;SDS011;34681;49.188;-0.374;2023-02-27T00:15:11;4.53;;;2.17;;
48861;SDS011;34681;49.188;-0.374;2023-02-27T00:17:38;3.17;;;2.20;;
48861;SDS011;34681;49.188;-0.374;2023-02-27T00:20:04;3.07;;;1.90;;
48861;SDS011;34681;49.188;-0.374;2023-02-27T00:22:30;4.10;;;1.67;;
48861;SDS011;34681;49.188;-0.374;2023-02-27T00:24:56;4.23;;;2.57;;
48861;SDS011;34681;49.188;-0.374;2023-02-27T00:27:21;5.17;;;2.33;;
48861;SDS011;34681;49.188;-0.374;2023-02-27T00:29:46;3.43;;;2.13;;
48861;SDS011;34681;49.188;-0.374;2023-02-27T00:32:12;9.27;;;2.57;;
48861;SDS011;34681;49.188;-0.374;2023-02-27T00:34:37;2.23;;;1.60;;
48861;SDS011;34681;49.188;-0.374;2023-02-27T00:37:03;3.80;;;1.63;;
48861;SDS011;34681;49.188;-0.374;2023-02-27T00:39:28;3.10;;;2.10;;
48861;SDS011;34681;49.188;-0.374;2023-02-27T00:41:54;7.10;;;1.57;;
48861;SDS011;34681;49.188;-0.374;2023-02-27T00:44:19;6.07;;;1.60;;
48861;SDS011;34681;49.188;-0.374;2023-02-27T00:46:44;2.70;;;1.70;;
48861;SDS011;34681;49.188;-0.374;2023-02-27T00:49:09;5.33;;;2.13;;
48861;SDS011;34681;49.188;-0.374;2023-02-27T00:51:35;7.80;;;3.40;;
48861;SDS011;34681;49.188;-0.374;2023-02-27T00:54:00;3.37;;;2.30;;
48861;SDS011;34681;49.188;-0.374;2023-02-27T00:56:26;2.80;;;2.00;;
48861;SDS011;34681;49.188;-0.374;2023-02-27T00:58:51;6.60;;;2.73;;
48861;SDS011;34681;49.188;-0.374;2023-02-27T01:01:16;6.30;;;3.30;;
48861;SDS011;34681;49.188;-0.374;2023-02-27T01:03:42;8.33;;;2.77;;
48861;SDS011;34681;49.188;-0.374;2023-02-27T01:06:07;12.20;;;2.97;;
48861;SDS011;34681;49.188;-0.374;2023-02-27T01:08:33;6.53;;;2.50;;
48861;SDS011;34681;49.188;-0.374;2023-02-27T01:10:58;4.90;;;2.50;;
48861;SDS011;34681;49.188;-0.374;2023-02-27T01:13:23;2.00;;;1.90;;
48861;SDS011;34681;49.188;-0.374;2023-02-27T01:15:49;7.20;;;2.03;;
48861;SDS011;34681;49.188;-0.374;2023-02-27T01:18:15;5.83;;;2.23;;
48861;SDS011;34681;49.188;-0.374;2023-02-27T01:20:40;6.83;;;2.60;;
48861;SDS011;34681;49.188;-0.374;2023-02-27T01:23:06;4.70;;;2.00;;
48861;SDS011;34681;49.188;-0.374;2023-02-27T01:25:31;10.60;;;2.07;;
48861;SDS011;34681;49.188;-0.374;2023-02-27T01:27:56;3.37;;;2.40;;
48861;SDS011;34681;49.188;-0.374;2023-02-27T01:30:22;6.73;;;2.40;;
48861;SDS011;34681;49.188;-0.374;2023-02-27T01:32:47;4.57;;;1.93;;
48861;SDS011;34681;49.188;-0.374;2023-02-27T01:35:12;2.80;;;1.60;;
48861;SDS011;34681;49.188;-0.374;2023-02-27T01:37:38;6.00;;;1.77;;
48861;SDS011;34681;49.188;-0.374;2023-02-27T01:40:03;5.40;;;2.37;;
48861;SDS011;34681;49.188;-0.374;2023-02-27T01:42:31;2.80;;;1.90;;
48861;SDS011;34681;49.188;-0.374;2023-02-27T01:48:19;13.13;;;2.70;;
48861;SDS011;34681;49.188;-0.374;2023-02-27T01:50:54;7.10;;;3.60;;
48861;SDS011;34681;49.188;-0.374;2023-02-27T01:53:22;3.03;;;2.13;;
48861;SDS011;34681;49.188;-0.374;2023-02-27T01:55:50;3.10;;;2.07;;
48861;SDS011;34681;49.188;-0.374;2023-02-27T01:58:22;2.27;;;1.90;;
48861;SDS011;34681;49.188;-0.374;2023-02-27T02:00:48;2.10;;;2.00;;
48861;SDS011;34681;49.188;-0.374;2023-02-27T02:03:32;7.03;;;2.17;;
48861;SDS011;34681;49.188;-0.374;2023-02-27T02:06:01;4.03;;;2.50;;
48861;SDS011;34681;49.188;-0.374;2023-02-27T02:08:30;4.03;;;2.23;;
48861;SDS011;34681;49.188;-0.374;2023-02-27T02:10:59;3.63;;;1.83;;
48861;SDS011;34681;49.188;-0.374;2023-02-27T02:13:25;2.87;;;1.97;;
48861;SDS011;34681;49.188;-0.374;2023-02-27T02:18:59;3.13;;;2.60;;
48861;SDS011;34681;49.188;-0.374;2023-02-27T02:40:46;3.63;;;2.10;;
48861;SDS011;34681;49.188;-0.374;2023-02-27T02:43:27;3.50;;;2.00;;
48861;SDS011;34681;49.188;-0.374;2023-02-27T02:46:14;5.77;;;2.70;;
48861;SDS011;34681;49.188;-0.374;2023-02-27T02:54:25;5.60;;;2.10;;
48861;SDS011;34681;49.188;-0.374;2023-02-27T02:57:07;5.13;;;2.43;;
48861;SDS011;34681;49.188;-0.374;2023-02-27T03:02:23;4.27;;;2.10;;
48861;SDS011;34681;49.188;-0.374;2023-02-27T03:07:30;7.50;;;2.30;;
48861;SDS011;34681;49.188;-0.374;2023-02-27T03:12:29;7.10;;;2.50;;
48861;SDS011;34681;49.188;-0.374;2023-02-27T03:14:59;4.20;;;2.20;;
48861;SDS011;34681;49.188;-0.374;2023-02-27T03:17:48;5.60;;;2.30;;
48861;SDS011;34681;49.188;-0.374;2023-02-27T03:20:36;8.23;;;2.10;;
48861;SDS011;34681;49.188;-0.374;2023-02-27T03:23:10;4.73;;;2.37;;
48861;SDS011;34681;49.188;-0.374;2023-02-27T03:25:39;3.67;;;2.10;;
48861;SDS011;34681;49.188;-0.374;2023-02-27T03:28:10;6.73;;;2.30;;
48861;SDS011;34681;49.188;-0.374;2023-02-27T03:33:46;3.00;;;2.40;;
48861;SDS011;34681;49.188;-0.374;2023-02-27T03:38:50;5.93;;;2.23;;
48861;SDS011;34681;49.188;-0.374;2023-02-27T03:41:31;4.70;;;2.43;;
48861;SDS011;34681;49.188;-0.374;2023-02-27T03:44:09;5.90;;;2.27;;
48861;SDS011;34681;49.188;-0.374;2023-02-27T03:46:47;6.70;;;2.53;;
48861;SDS011;34681;49.188;-0.374;2023-02-27T03:49:12;3.60;;;2.13;;
48861;SDS011;34681;49.188;-0.374;2023-02-27T03:51:38;4.27;;;2.20;;
48861;SDS011;34681;49.188;-0.374;2023-02-27T03:54:05;4.07;;;2.13;;
48861;SDS011;34681;49.188;-0.374;2023-02-27T03:57:17;9.50;;;2.80;;
48861;SDS011;34681;49.188;-0.374;2023-02-27T03:59:24;4.27;;;2.60;;
48861;SDS011;34681;49.188;-0.374;2023-02-27T04:01:51;10.10;;;2.33;;
48861;SDS011;34681;49.188;-0.374;2023-02-27T04:04:18;3.10;;;2.00;;
48861;SDS011;34681;49.188;-0.374;2023-02-27T04:06:46;3.50;;;2.00;;
48861;SDS011;34681;49.188;-0.374;2023-02-27T04:12:21;3.23;;;1.83;;
48861;SDS011;34681;49.188;-0.374;2023-02-27T04:17:32;5.47;;;2.00;;
48861;SDS011;34681;49.188;-0.374;2023-02-27T04:20:50;4.00;;;2.50;;
48861;SDS011;34681;49.188;-0.374;2023-02-27T04:31:44;2.07;;;1.87;;
48861;SDS011;34681;49.188;-0.374;2023-02-27T04:34:20;4.47;;;2.53;;
48861;SDS011;34681;49.188;-0.374;2023-02-27T04:36:57;5.23;;;2.67;;
48861;SDS011;34681;49.188;-0.374;2023-02-27T04:39:27;4.37;;;2.13;;
48861;SDS011;34681;49.188;-0.374;2023-02-27T04:42:02;6.40;;;2.00;;
48861;SDS011;34681;49.188;-0.374;2023-02-27T04:44:49;8.30;;;2.60;;
48861;SDS011;34681;49.188;-0.374;2023-02-27T04:47:19;3.03;;;2.43;;
48861;SDS011;34681;49.188;-0.374;2023-02-27T04:49:49;6.93;;;2.20;;
48861;SDS011;34681;49.188;-0.374;2023-02-27T04:52:23;6.03;;;2.50;;
48861;SDS011;34681;49.188;-0.374;2023-02-27T04:54:53;3.33;;;1.93;;
48861;SDS011;34681;49.188;-0.374;2023-02-27T04:57:38;3.93;;;1.93;;
48861;SDS011;34681;49.188;-0.374;2023-02-27T05:00:10;2.60;;;1.87;;
48861;SDS011;34681;49.188;-0.374;2023-02-27T05:02:40;6.07;;;2.40;;
48861;SDS011;34681;49.188;-0.374;2023-02-27T05:05:13;4.73;;;2.20;;
48861;SDS011;34681;49.188;-0.374;2023-02-27T05:07:51;4.30;;;1.90;;
48861;SDS011;34681;49.188;-0.374;2023-02-27T05:10:45;7.37;;;2.10;;
48861;SDS011;34681;49.188;-0.374;2023-02-27T05:16:37;4.30;;;2.20;;
48861;SDS011;34681;49.188;-0.374;2023-02-27T05:19:10;3.20;;;2.23;;
48861;SDS011;34681;49.188;-0.374;2023-02-27T05:21:41;3.53;;;2.13;;
48861;SDS011;34681;49.188;-0.374;2023-02-27T05:24:32;5.73;;;1.90;;
48861;SDS011;34681;49.188;-0.374;2023-02-27T05:27:09;6.87;;;2.03;;
48861;SDS011;34681;49.188;-0.374;2023-02-27T05:29:49;2.40;;;1.70;;
48861;SDS011;34681;49.188;-0.374;2023-02-27T05:32:36;8.80;;;2.43;;
48861;SDS011;34681;49.188;-0.374;2023-02-27T05:35:25;4.13;;;2.20;;
48861;SDS011;34681;49.188;-0.374;2023-02-27T05:40:32;2.77;;;2.23;;
48861;SDS011;34681;49.188;-0.374;2023-02-27T05:43:05;5.07;;;2.13;;
48861;SDS011;34681;49.188;-0.374;2023-02-27T05:45:34;6.00;;;2.80;;
48861;SDS011;34681;49.188;-0.374;2023-02-27T05:48:04;7.43;;;3.03;;
48861;SDS011;34681;49.188;-0.374;2023-02-27T05:50:42;11.13;;;3.57;;
48861;SDS011;34681;49.188;-0.374;2023-02-27T05:53:10;3.67;;;3.23;;
48861;SDS011;34681;49.188;-0.374;2023-02-27T05:55:43;2.80;;;2.60;;
48861;SDS011;34681;49.188;-0.374;2023-02-27T06:00:51;6.50;;;3.07;;
48861;SDS011;34681;49.188;-0.374;2023-02-27T06:03:21;9.23;;;3.87;;
48861;SDS011;34681;49.188;-0.374;2023-02-27T06:05:47;3.57;;;2.83;;
48861;SDS011;34681;49.188;-0.374;2023-02-27T06:08:17;4.77;;;3.10;;
48861;SDS011;34681;49.188;-0.374;2023-02-27T06:10:42;4.20;;;3.23;;
48861;SDS011;34681;49.188;-0.374;2023-02-27T06:13:08;3.73;;;3.40;;
48861;SDS011;34681;49.188;-0.374;2023-02-27T06:15:33;5.40;;;3.00;;
48861;SDS011;34681;49.188;-0.374;2023-02-27T06:17:58;4.07;;;3.37;;
48861;SDS011;34681;49.188;-0.374;2023-02-27T06:20:24;9.10;;;3.40;;
48861;SDS011;34681;49.188;-0.374;2023-02-27T06:22:49;5.40;;;3.20;;
48861;SDS011;34681;49.188;-0.374;2023-02-27T06:25:14;4.30;;;3.60;;
48861;SDS011;34681;49.188;-0.374;2023-02-27T06:27:40;4.57;;;3.70;;
48861;SDS011;34681;49.188;-0.374;2023-02-27T06:30:05;7.23;;;3.83;;
48861;SDS011;34681;49.188;-0.374;2023-02-27T06:32:31;4.43;;;3.67;;
48861;SDS011;34681;49.188;-0.374;2023-02-27T06:34:57;9.17;;;4.37;;
48861;SDS011;34681;49.188;-0.374;2023-02-27T06:37:23;4.50;;;4.10;;
48861;SDS011;34681;49.188;-0.374;2023-02-27T06:39:48;6.20;;;4.83;;
48861;SDS011;34681;49.188;-0.374;2023-02-27T06:42:14;9.23;;;4.50;;
48861;SDS011;34681;49.188;-0.374;2023-02-27T06:44:40;4.00;;;3.60;;
48861;SDS011;34681;49.188;-0.374;2023-02-27T06:47:05;8.20;;;4.20;;
48861;SDS011;34681;49.188;-0.374;2023-02-27T06:49:31;6.50;;;4.37;;
48861;SDS011;34681;49.188;-0.374;2023-02-27T06:51:56;6.97;;;3.80;;
48861;SDS011;34681;49.188;-0.374;2023-02-27T06:54:21;8.40;;;4.20;;
48861;SDS011;34681;49.188;-0.374;2023-02-27T06:56:47;4.67;;;4.07;;
48861;SDS011;34681;49.188;-0.374;2023-02-27T06:59:12;4.17;;;3.83;;
48861;SDS011;34681;49.188;-0.374;2023-02-27T07:01:38;5.10;;;4.50;;
48861;SDS011;34681;49.188;-0.374;2023-02-27T07:04:03;5.73;;;4.10;;
48861;SDS011;34681;49.188;-0.374;2023-02-27T07:06:29;7.53;;;4.67;;
48861;SDS011;34681;49.188;-0.374;2023-02-27T07:08:54;5.60;;;4.93;;
48861;SDS011;34681;49.188;-0.374;2023-02-27T07:11:20;7.30;;;5.53;;
48861;SDS011;34681;49.188;-0.374;2023-02-27T07:13:45;8.13;;;4.47;;
48861;SDS011;34681;49.188;-0.374;2023-02-27T07:16:10;5.30;;;4.77;;
48861;SDS011;34681;49.188;-0.374;2023-02-27T07:18:36;8.90;;;4.43;;
48861;SDS011;34681;49.188;-0.374;2023-02-27T07:21:01;13.03;;;6.07;;
48861;SDS011;34681;49.188;-0.374;2023-02-27T07:23:28;13.00;;;6.27;;
48861;SDS011;34681;49.188;-0.374;2023-02-27T07:25:53;11.47;;;6.10;;
48861;SDS011;34681;49.188;-0.374;2023-02-27T07:28:19;10.87;;;5.40;;
48861;SDS011;34681;49.188;-0.374;2023-02-27T07:30:44;7.20;;;4.77;;
48861;SDS011;34681;49.188;-0.374;2023-02-27T07:33:10;5.13;;;4.73;;
48861;SDS011;34681;49.188;-0.374;2023-02-27T07:35:36;5.97;;;5.10;;
48861;SDS011;34681;49.188;-0.374;2023-02-27T07:38:02;7.20;;;6.00;;
48861;SDS011;34681;49.188;-0.374;2023-02-27T07:40:28;6.23;;;4.90;;
48861;SDS011;34681;49.188;-0.374;2023-02-27T07:42:53;6.77;;;5.47;;
48861;SDS011;34681;49.188;-0.374;2023-02-27T07:45:18;5.27;;;4.77;;
48861;SDS011;34681;49.188;-0.374;2023-02-27T07:47:44;6.17;;;5.00;;
48861;SDS011;34681;49.188;-0.374;2023-02-27T07:50:10;5.80;;;4.53;;
48861;SDS011;34681;49.188;-0.374;2023-02-27T07:52:38;6.43;;;4.77;;
48861;SDS011;34681;49.188;-0.374;2023-02-27T07:55:05;5.80;;;4.00;;
48861;SDS011;34681;49.188;-0.374;2023-02-27T07:57:31;7.20;;;4.60;;
48861;SDS011;34681;49.188;-0.374;2023-02-27T07:59:57;6.63;;;4.50;;
48861;SDS011;34681;49.188;-0.374;2023-02-27T08:02:23;6.50;;;6.00;;
48861;SDS011;34681;49.188;-0.374;2023-02-27T08:04:48;11.43;;;4.50;;
48861;SDS011;34681;49.188;-0.374;2023-02-27T08:07:13;6.70;;;4.37;;
48861;SDS011;34681;49.188;-0.374;2023-02-27T08:09:39;5.00;;;4.50;;
48861;SDS011;34681;49.188;-0.374;2023-02-27T08:12:04;6.70;;;5.27;;
48861;SDS011;34681;49.188;-0.374;2023-02-27T08:14:29;5.67;;;5.13;;
48861;SDS011;34681;49.188;-0.374;2023-02-27T08:16:55;6.73;;;5.53;;
48861;SDS011;34681;49.188;-0.374;2023-02-27T08:19:20;5.53;;;5.03;;
48861;SDS011;34681;49.188;-0.374;2023-02-27T08:21:46;5.10;;;4.70;;
48861;SDS011;34681;49.188;-0.374;2023-02-27T08:24:11;8.87;;;5.73;;
48861;SDS011;34681;49.188;-0.374;2023-02-27T08:26:36;10.50;;;4.90;;
48861;SDS011;34681;49.188;-0.374;2023-02-27T08:29:02;5.87;;;5.10;;
48861;SDS011;34681;49.188;-0.374;2023-02-27T08:31:27;7.40;;;4.70;;
48861;SDS011;34681;49.188;-0.374;2023-02-27T08:33:53;6.07;;;5.57;;
48861;SDS011;34681;49.188;-0.374;2023-02-27T08:36:18;6.43;;;5.90;;
48861;SDS011;34681;49.188;-0.374;2023-02-27T08:38:43;6.43;;;5.83;;
48861;SDS011;34681;49.188;-0.374;2023-02-27T08:41:09;7.60;;;6.00;;
48861;SDS011;34681;49.188;-0.374;2023-02-27T08:43:34;7.07;;;4.93;;
48861;SDS011;34681;49.188;-0.374;2023-02-27T08:45:59;5.30;;;4.87;;
48861;SDS011;34681;49.188;-0.374;2023-02-27T08:48:25;9.13;;;4.50;;
48861;SDS011;34681;49.188;-0.374;2023-02-27T08:50:50;10.53;;;5.47;;
48861;SDS011;34681;49.188;-0.374;2023-02-27T08:53:16;6.30;;;4.57;;
48861;SDS011;34681;49.188;-0.374;2023-02-27T08:55:41;7.23;;;4.73;;
48861;SDS011;34681;49.188;-0.374;2023-02-27T08:58:07;4.37;;;4.03;;
48861;SDS011;34681;49.188;-0.374;2023-02-27T09:00:33;4.40;;;3.80;;
48861;SDS011;34681;49.188;-0.374;2023-02-27T09:02:59;4.40;;;3.53;;
48861;SDS011;34681;49.188;-0.374;2023-02-27T09:05:25;4.47;;;3.60;;
48861;SDS011;34681;49.188;-0.374;2023-02-27T09:07:51;4.50;;;3.20;;
48861;SDS011;34681;49.188;-0.374;2023-02-27T09:10:16;6.03;;;4.00;;
48861;SDS011;34681;49.188;-0.374;2023-02-27T09:12:43;6.40;;;3.60;;
48861;SDS011;34681;49.188;-0.374;2023-02-27T09:15:09;5.27;;;3.50;;
48861;SDS011;34681;49.188;-0.374;2023-02-27T09:17:35;3.43;;;3.13;;
48861;SDS011;34681;49.188;-0.374;2023-02-27T09:20:01;5.60;;;3.67;;
48861;SDS011;34681;49.188;-0.374;2023-02-27T09:22:29;6.20;;;3.70;;
48861;SDS011;34681;49.188;-0.374;2023-02-27T09:24:54;3.80;;;3.50;;
48861;SDS011;34681;49.188;-0.374;2023-02-27T09:27:20;3.33;;;3.03;;
48861;SDS011;34681;49.188;-0.374;2023-02-27T09:29:45;2.77;;;2.37;;
48861;SDS011;34681;49.188;-0.374;2023-02-27T09:32:11;2.87;;;2.67;;
48861;SDS011;34681;49.188;-0.374;2023-02-27T09:34:36;3.70;;;2.40;;
48861;SDS011;34681;49.188;-0.374;2023-02-27T09:37:01;2.57;;;2.33;;
48861;SDS011;34681;49.188;-0.374;2023-02-27T09:39:27;2.87;;;2.70;;
48861;SDS011;34681;49.188;-0.374;2023-02-27T09:44:43;7.70;;;2.80;;
48861;SDS011;34681;49.188;-0.374;2023-02-27T09:50:07;2.80;;;2.60;;
48861;SDS011;34681;49.188;-0.374;2023-02-27T09:52:48;3.90;;;2.10;;
48861;SDS011;34681;49.188;-0.374;2023-02-27T09:55:16;3.00;;;2.80;;
48861;SDS011;34681;49.188;-0.374;2023-02-27T09:57:48;2.93;;;2.63;;
48861;SDS011;34681;49.188;-0.374;2023-02-27T10:08:30;2.63;;;2.43;;
48861;SDS011;34681;49.188;-0.374;2023-02-27T10:11:22;2.83;;;2.60;;
48861;SDS011;34681;49.188;-0.374;2023-02-27T10:14:03;3.20;;;3.00;;
48861;SDS011;34681;49.188;-0.374;2023-02-27T10:16:40;5.63;;;2.90;;
48861;SDS011;34681;49.188;-0.374;2023-02-27T10:19:11;6.97;;;3.07;;
48861;SDS011;34681;49.188;-0.374;2023-02-27T10:21:41;3.23;;;2.93;;
48861;SDS011;34681;49.188;-0.374;2023-02-27T10:26:51;3.03;;;2.60;;
48861;SDS011;34681;49.188;-0.374;2023-02-27T10:31:58;3.10;;;2.80;;
48861;SDS011;34681;49.188;-0.374;2023-02-27T10:34:28;4.00;;;2.70;;
48861;SDS011;34681;49.188;-0.374;2023-02-27T10:36:55;2.67;;;2.47;;
48861;SDS011;34681;49.188;-0.374;2023-02-27T10:39:24;3.43;;;2.97;;
48861;SDS011;34681;49.188;-0.374;2023-02-27T10:41:50;3.43;;;2.70;;
48861;SDS011;34681;49.188;-0.374;2023-02-27T10:44:16;3.50;;;3.20;;
48861;SDS011;34681;49.188;-0.374;2023-02-27T10:46:45;4.20;;;2.70;;
48861;SDS011;34681;49.188;-0.374;2023-02-27T10:49:15;12.57;;;2.83;;
48861;SDS011;34681;49.188;-0.374;2023-02-27T10:51:43;10.10;;;3.67;;
48861;SDS011;34681;49.188;-0.374;2023-02-27T10:56:46;6.10;;;3.20;;
48861;SDS011;34681;49.188;-0.374;2023-02-27T10:59:36;3.63;;;2.60;;
48861;SDS011;34681;49.188;-0.374;2023-02-27T11:02:03;2.73;;;2.53;;
48861;SDS011;34681;49.188;-0.374;2023-02-27T11:04:45;2.60;;;2.40;;
48861;SDS011;34681;49.188;-0.374;2023-02-27T11:07:24;3.17;;;2.80;;
48861;SDS011;34681;49.188;-0.374;2023-02-27T11:09:59;4.57;;;3.17;;
48861;SDS011;34681;49.188;-0.374;2023-02-27T11:12:31;2.90;;;2.80;;
48861;SDS011;34681;49.188;-0.374;2023-02-27T11:15:00;4.53;;;2.73;;
48861;SDS011;34681;49.188;-0.374;2023-02-27T11:17:44;3.33;;;2.80;;
48861;SDS011;34681;49.188;-0.374;2023-02-27T11:23:09;5.40;;;3.00;;
48861;SDS011;34681;49.188;-0.374;2023-02-27T11:25:40;5.00;;;2.97;;
48861;SDS011;34681;49.188;-0.374;2023-02-27T11:28:21;3.83;;;3.03;;
48861;SDS011;34681;49.188;-0.374;2023-02-27T11:33:35;6.47;;;3.00;;
48861;SDS011;34681;49.188;-0.374;2023-02-27T11:36:04;2.93;;;2.73;;
48861;SDS011;34681;49.188;-0.374;2023-02-27T11:38:30;5.70;;;3.67;;
48861;SDS011;34681;49.188;-0.374;2023-02-27T11:41:00;5.27;;;4.03;;
48861;SDS011;34681;49.188;-0.374;2023-02-27T11:43:36;3.73;;;3.43;;
48861;SDS011;34681;49.188;-0.374;2023-02-27T11:46:11;4.43;;;3.40;;
48861;SDS011;34681;49.188;-0.374;2023-02-27T11:48:46;3.40;;;3.13;;
48861;SDS011;34681;49.188;-0.374;2023-02-27T11:51:25;3.40;;;3.20;;
48861;SDS011;34681;49.188;-0.374;2023-02-27T11:54:35;4.00;;;3.63;;
48861;SDS011;34681;49.188;-0.374;2023-02-27T12:00:00;4.57;;;3.37;;
48861;SDS011;34681;49.188;-0.374;2023-02-27T12:05:27;4.17;;;3.20;;
48861;SDS011;34681;49.188;-0.374;2023-02-27T12:10:34;4.43;;;4.03;;
48861;SDS011;34681;49.188;-0.374;2023-02-27T12:13:13;5.77;;;3.80;;
48861;SDS011;34681;49.188;-0.374;2023-02-27T12:15:54;4.27;;;3.90;;
48861;SDS011;34681;49.188;-0.374;2023-02-27T12:21:00;6.17;;;3.93;;
48861;SDS011;34681;49.188;-0.374;2023-02-27T12:34:37;7.23;;;4.20;;
48861;SDS011;34681;49.188;-0.374;2023-02-27T12:37:13;4.13;;;3.83;;
48861;SDS011;34681;49.188;-0.374;2023-02-27T12:39:48;7.20;;;4.57;;
48861;SDS011;34681;49.188;-0.374;2023-02-27T12:50:29;3.90;;;3.33;;
48861;SDS011;34681;49.188;-0.374;2023-02-27T12:55:46;4.30;;;4.00;;
48861;SDS011;34681;49.188;-0.374;2023-02-27T13:00:59;5.10;;;4.60;;
48861;SDS011;34681;49.188;-0.374;2023-02-27T13:03:42;4.83;;;4.50;;
48861;SDS011;34681;49.188;-0.374;2023-02-27T13:11:50;4.60;;;4.20;;
48861;SDS011;34681;49.188;-0.374;2023-02-27T13:17:16;7.90;;;3.93;;
48861;SDS011;34681;49.188;-0.374;2023-02-27T13:25:15;5.63;;;4.03;;
48861;SDS011;34681;49.188;-0.374;2023-02-27T13:27:53;7.33;;;4.00;;
48861;SDS011;34681;49.188;-0.374;2023-02-27T13:30:34;4.93;;;4.43;;
48861;SDS011;34681;49.188;-0.374;2023-02-27T13:39:16;3.97;;;3.67;;
48861;SDS011;34681;49.188;-0.374;2023-02-27T13:43:55;8.30;;;4.80;;
48861;SDS011;34681;49.188;-0.374;2023-02-27T13:46:25;5.90;;;3.70;;
48861;SDS011;34681;49.188;-0.374;2023-02-27T13:51:40;5.73;;;3.83;;
48861;SDS011;34681;49.188;-0.374;2023-02-27T13:56:37;5.50;;;4.70;;
48861;SDS011;34681;49.188;-0.374;2023-02-27T13:59:26;8.10;;;4.60;;
48861;SDS011;34681;49.188;-0.374;2023-02-27T14:04:21;5.40;;;4.90;;
48861;SDS011;34681;49.188;-0.374;2023-02-27T14:06:50;5.53;;;5.03;;
48861;SDS011;34681;49.188;-0.374;2023-02-27T14:09:22;5.87;;;5.37;;
48861;SDS011;34681;49.188;-0.374;2023-02-27T14:11:50;5.40;;;5.00;;
48861;SDS011;34681;49.188;-0.374;2023-02-27T14:14:38;6.20;;;5.57;;
48861;SDS011;34681;49.188;-0.374;2023-02-27T14:20:02;6.20;;;5.70;;
48861;SDS011;34681;49.188;-0.374;2023-02-27T14:22:38;8.83;;;5.03;;
48861;SDS011;34681;49.188;-0.374;2023-02-27T14:25:25;5.70;;;5.20;;
48861;SDS011;34681;49.188;-0.374;2023-02-27T14:27:54;6.10;;;5.50;;
48861;SDS011;34681;49.188;-0.374;2023-02-27T14:30:27;6.63;;;6.03;;
48861;SDS011;34681;49.188;-0.374;2023-02-27T14:32:59;5.80;;;5.30;;
48861;SDS011;34681;49.188;-0.374;2023-02-27T14:35:52;7.33;;;5.30;;
48861;SDS011;34681;49.188;-0.374;2023-02-27T14:38:30;6.93;;;5.77;;
48861;SDS011;34681;49.188;-0.374;2023-02-27T14:43:51;7.63;;;5.60;;
48861;SDS011;34681;49.188;-0.374;2023-02-27T14:48:53;7.23;;;6.30;;
48861;SDS011;34681;49.188;-0.374;2023-02-27T14:51:28;9.10;;;5.60;;
48861;SDS011;34681;49.188;-0.374;2023-02-27T14:53:59;7.00;;;6.40;;
48861;SDS011;34681;49.188;-0.374;2023-02-27T14:56:27;11.50;;;5.90;;
48861;SDS011;34681;49.188;-0.374;2023-02-27T14:58:53;10.83;;;6.87;;
48861;SDS011;34681;49.188;-0.374;2023-02-27T15:01:20;7.10;;;6.40;;
48861;SDS011;34681;49.188;-0.374;2023-02-27T15:03:48;6.00;;;5.60;;
48861;SDS011;34681;49.188;-0.374;2023-02-27T15:06:20;8.27;;;6.23;;
48861;SDS011;34681;49.188;-0.374;2023-02-27T15:08:52;6.97;;;6.20;;
48861;SDS011;34681;49.188;-0.374;2023-02-27T15:11:21;7.13;;;6.43;;
48861;SDS011;34681;49.188;-0.374;2023-02-27T15:13:49;9.53;;;6.00;;
48861;SDS011;34681;49.188;-0.374;2023-02-27T15:16:28;7.13;;;5.60;;
48861;SDS011;34681;49.188;-0.374;2023-02-27T15:19:09;7.90;;;6.43;;
48861;SDS011;34681;49.188;-0.374;2023-02-27T15:21:37;7.43;;;6.67;;
48861;SDS011;34681;49.188;-0.374;2023-02-27T15:24:04;8.20;;;5.97;;
48861;SDS011;34681;49.188;-0.374;2023-02-27T15:26:36;8.00;;;6.17;;
48861;SDS011;34681;49.188;-0.374;2023-02-27T15:29:04;6.70;;;6.20;;
48861;SDS011;34681;49.188;-0.374;2023-02-27T15:31:31;10.83;;;7.00;;
48861;SDS011;34681;49.188;-0.374;2023-02-27T15:33:57;9.93;;;6.40;;
48861;SDS011;34681;49.188;-0.374;2023-02-27T15:36:31;7.53;;;6.43;;
48861;SDS011;34681;49.188;-0.374;2023-02-27T15:41:40;7.30;;;6.40;;
48861;SDS011;34681;49.188;-0.374;2023-02-27T15:44:08;11.77;;;6.97;;
48861;SDS011;34681;49.188;-0.374;2023-02-27T15:46:38;9.27;;;5.87;;
48861;SDS011;34681;49.188;-0.374;2023-02-27T15:49:04;9.93;;;5.67;;
48861;SDS011;34681;49.188;-0.374;2023-02-27T15:51:30;6.20;;;5.37;;
48861;SDS011;34681;49.188;-0.374;2023-02-27T15:53:57;7.07;;;6.37;;
48861;SDS011;34681;49.188;-0.374;2023-02-27T15:56:25;8.37;;;7.20;;
48861;SDS011;34681;49.188;-0.374;2023-02-27T15:58:55;8.77;;;5.83;;
48861;SDS011;34681;49.188;-0.374;2023-02-27T16:01:24;7.70;;;6.10;;
48861;SDS011;34681;49.188;-0.374;2023-02-27T16:03:53;8.50;;;5.73;;
48861;SDS011;34681;49.188;-0.374;2023-02-27T16:06:32;9.20;;;5.63;;
48861;SDS011;34681;49.188;-0.374;2023-02-27T16:11:41;8.13;;;6.87;;
48861;SDS011;34681;49.188;-0.374;2023-02-27T16:14:34;7.70;;;6.90;;
48861;SDS011;34681;49.188;-0.374;2023-02-27T16:17:02;9.83;;;6.07;;
48861;SDS011;34681;49.188;-0.374;2023-02-27T16:19:29;6.73;;;5.93;;
48861;SDS011;34681;49.188;-0.374;2023-02-27T16:22:05;7.00;;;6.37;;
48861;SDS011;34681;49.188;-0.374;2023-02-27T16:24:38;5.93;;;5.43;;
48861;SDS011;34681;49.188;-0.374;2023-02-27T16:27:04;8.90;;;5.17;;
48861;SDS011;34681;49.188;-0.374;2023-02-27T16:29:33;6.03;;;5.40;;
48861;SDS011;34681;49.188;-0.374;2023-02-27T16:32:04;7.13;;;6.10;;
48861;SDS011;34681;49.188;-0.374;2023-02-27T16:34:33;7.03;;;6.43;;
48861;SDS011;34681;49.188;-0.374;2023-02-27T16:37:01;5.83;;;5.33;;
48861;SDS011;34681;49.188;-0.374;2023-02-27T16:39:28;6.57;;;5.40;;
48861;SDS011;34681;49.188;-0.374;2023-02-27T16:41:55;5.40;;;4.70;;
48861;SDS011;34681;49.188;-0.374;2023-02-27T16:44:22;9.00;;;4.57;;
48861;SDS011;34681;49.188;-0.374;2023-02-27T16:46:52;7.67;;;4.50;;
48861;SDS011;34681;49.188;-0.374;2023-02-27T16:49:26;6.23;;;4.70;;
48861;SDS011;34681;49.188;-0.374;2023-02-27T16:51:53;4.87;;;4.43;;
48861;SDS011;34681;49.188;-0.374;2023-02-27T16:54:19;4.77;;;4.37;;
48861;SDS011;34681;49.188;-0.374;2023-02-27T16:56:45;10.27;;;5.60;;
48861;SDS011;34681;49.188;-0.374;2023-02-27T17:01:46;10.40;;;5.00;;
48861;SDS011;34681;49.188;-0.374;2023-02-27T17:04:11;6.13;;;5.23;;
48861;SDS011;34681;49.188;-0.374;2023-02-27T17:06:36;8.90;;;4.40;;
48861;SDS011;34681;49.188;-0.374;2023-02-27T17:09:02;4.90;;;4.40;;
48861;SDS011;34681;49.188;-0.374;2023-02-27T17:11:28;10.13;;;4.80;;
48861;SDS011;34681;49.188;-0.374;2023-02-27T17:13:54;11.23;;;5.13;;
48861;SDS011;34681;49.188;-0.374;2023-02-27T17:16:19;6.97;;;4.30;;
48861;SDS011;34681;49.188;-0.374;2023-02-27T17:18:44;6.13;;;4.90;;
48861;SDS011;34681;49.188;-0.374;2023-02-27T17:21:10;9.30;;;5.60;;
48861;SDS011;34681;49.188;-0.374;2023-02-27T17:23:35;5.13;;;4.10;;
48861;SDS011;34681;49.188;-0.374;2023-02-27T17:26:00;6.80;;;4.80;;
48861;SDS011;34681;49.188;-0.374;2023-02-27T17:28:26;6.00;;;5.27;;
48861;SDS011;34681;49.188;-0.374;2023-02-27T17:30:51;4.77;;;4.20;;
48861;SDS011;34681;49.188;-0.374;2023-02-27T17:33:18;8.70;;;4.20;;
48861;SDS011;34681;49.188;-0.374;2023-02-27T17:35:44;4.40;;;4.10;;
48861;SDS011;34681;49.188;-0.374;2023-02-27T17:38:09;10.13;;;4.50;;
48861;SDS011;34681;49.188;-0.374;2023-02-27T17:40:35;7.67;;;4.67;;
48861;SDS011;34681;49.188;-0.374;2023-02-27T17:43:01;4.70;;;4.23;;
48861;SDS011;34681;49.188;-0.374;2023-02-27T17:45:27;4.27;;;3.83;;